createdAt,value
2018-01-30T00:02:07.292Z,0.60
2018-01-30T00:04:39.816Z,0.67
2018-01-30T00:07:12.376Z,0.87
2018-01-30T00:09:44.896Z,0.70
2018-01-30T00:12:17.458Z,0.80
2018-01-30T00:14:49.976Z,0.90
2018-01-30T00:17:23.256Z,0.70
2018-01-30T00:19:56.532Z,0.80
2018-01-30T00:22:28.892Z,0.57
2018-01-30T00:25:02.186Z,0.67
2018-01-30T00:27:34.696Z,0.50
2018-01-30T00:30:07.204Z,0.63
2018-01-30T00:32:39.664Z,0.80
2018-01-30T00:35:12.220Z,0.70
2018-01-30T00:37:44.840Z,0.70
2018-01-30T00:40:17.368Z,0.63
2018-01-30T00:42:49.924Z,0.60
2018-01-30T00:45:22.483Z,0.97
2018-01-30T00:47:54.995Z,0.60
2018-01-30T00:50:27.537Z,0.70
2018-01-30T00:53:00.177Z,0.73
2018-01-30T00:55:32.717Z,0.63
2018-01-30T00:58:05.996Z,0.50
2018-01-30T01:00:39.268Z,0.60
2018-01-30T01:03:11.668Z,0.60
2018-01-30T01:05:44.255Z,0.80
2018-01-30T01:08:16.844Z,0.63
2018-01-30T01:10:50.188Z,0.70
2018-01-30T01:13:22.680Z,0.60
2018-01-30T01:15:55.276Z,0.60
2018-01-30T01:18:27.912Z,0.60
2018-01-30T01:21:00.430Z,0.60
2018-01-30T01:23:33.020Z,0.70
2018-01-30T01:26:05.623Z,0.70
2018-01-30T01:28:38.184Z,0.60
2018-01-30T01:31:10.724Z,0.80
2018-01-30T01:33:44.112Z,0.80
2018-01-30T01:36:17.374Z,0.70
2018-01-30T01:38:49.762Z,0.70
2018-01-30T01:41:22.264Z,0.87
2018-01-30T01:43:55.621Z,0.70
2018-01-30T01:46:28.103Z,1.07
2018-01-30T01:49:00.716Z,0.83
2018-01-30T01:51:34.084Z,0.53
2018-01-30T01:54:06.709Z,0.57
2018-01-30T01:56:39.221Z,0.70
2018-01-30T01:59:11.832Z,0.67
2018-01-30T02:01:44.352Z,0.60
2018-01-30T02:04:17.688Z,0.60
2018-01-30T02:06:50.129Z,0.60
2018-01-30T02:09:22.756Z,0.70
2018-01-30T02:11:55.275Z,0.60
2018-01-30T02:14:27.778Z,0.60
2018-01-30T02:17:00.371Z,0.60
2018-01-30T02:19:32.908Z,0.70
2018-01-30T02:22:05.460Z,0.80
2018-01-30T02:24:37.996Z,0.63
2018-01-30T02:27:10.437Z,0.50
2018-01-30T02:29:42.895Z,0.50
2018-01-30T02:32:16.192Z,0.70
2018-01-30T02:34:49.500Z,0.67
2018-01-30T02:37:22.772Z,0.60
2018-01-30T02:39:56.080Z,0.57
2018-01-30T02:42:28.569Z,0.70
2018-01-30T02:45:01.129Z,0.80
2018-01-30T02:47:33.696Z,0.60
2018-01-30T02:50:06.344Z,0.60
2018-01-30T02:52:38.779Z,0.70
2018-01-30T02:55:12.052Z,0.60
2018-01-30T02:57:44.488Z,0.67
2018-01-30T03:00:17.820Z,0.80
2018-01-30T03:02:50.296Z,0.50
2018-01-30T03:05:22.907Z,0.70
2018-01-30T03:07:55.408Z,0.67
2018-01-30T03:10:27.915Z,0.60
2018-01-30T03:13:00.524Z,0.83
2018-01-30T03:15:33.048Z,0.50
2018-01-30T03:18:06.341Z,0.60
2018-01-30T03:20:38.986Z,0.70
2018-01-30T03:23:11.527Z,0.70
2018-01-30T03:25:43.883Z,0.70
2018-01-30T03:28:17.156Z,0.70
2018-01-30T03:30:49.656Z,0.50
2018-01-30T03:33:22.172Z,0.80
2018-01-30T03:35:54.639Z,0.70
2018-01-30T03:38:27.976Z,0.70
2018-01-30T03:41:01.081Z,0.57
2018-01-30T03:43:33.611Z,0.50
2018-01-30T03:46:06.173Z,0.60
2018-01-30T03:48:39.415Z,0.50
2018-01-30T03:51:11.928Z,0.60
2018-01-30T03:53:44.375Z,0.60
2018-01-30T03:56:16.933Z,0.50
2018-01-30T03:58:49.419Z,0.60
2018-01-30T04:01:21.967Z,0.50
2018-01-30T04:03:54.467Z,0.70
2018-01-30T04:06:27.089Z,0.60
2018-01-30T04:08:59.627Z,0.60
2018-01-30T04:11:32.215Z,0.60
2018-01-30T04:14:04.782Z,0.70
2018-01-30T04:16:37.333Z,0.70
2018-01-30T04:19:09.899Z,0.50
2018-01-30T04:21:42.526Z,0.60
2018-01-30T04:24:15.029Z,0.70
2018-01-30T04:26:47.676Z,0.50
2018-01-30T04:29:20.041Z,0.53
2018-01-30T04:31:52.572Z,0.53
2018-01-30T04:34:25.756Z,0.60
2018-01-30T04:36:58.288Z,0.57
2018-01-30T04:39:30.756Z,0.70
2018-01-30T04:42:03.307Z,0.50
2018-01-30T04:44:36.581Z,0.50
2018-01-30T04:47:09.113Z,0.50
2018-01-30T04:49:41.588Z,0.60
2018-01-30T04:52:14.149Z,0.60
2018-01-30T04:54:46.675Z,0.50
2018-01-30T04:57:19.309Z,0.60
2018-01-30T04:59:51.861Z,0.50
2018-01-30T05:02:25.260Z,0.47
2018-01-30T05:04:57.691Z,0.70
2018-01-30T05:07:30.249Z,0.63
2018-01-30T05:10:02.752Z,0.50
2018-01-30T05:12:36.153Z,0.70
2018-01-30T05:15:09.432Z,0.73
2018-01-30T05:17:42.080Z,0.50
2018-01-30T05:20:14.528Z,0.50
2018-01-30T05:22:47.052Z,0.63
2018-01-30T05:25:19.548Z,0.60
2018-01-30T05:27:52.160Z,0.60
2018-01-30T05:30:24.668Z,0.60
2018-01-30T05:32:57.995Z,0.60
2018-01-30T05:35:30.570Z,0.60
2018-01-30T05:38:03.842Z,0.50
2018-01-30T05:40:36.344Z,0.50
2018-01-30T05:43:08.908Z,0.50
2018-01-30T05:45:41.763Z,0.60
2018-01-30T05:48:14.262Z,0.70
2018-01-30T05:50:47.527Z,0.60
2018-01-30T05:53:20.060Z,0.60
2018-01-30T05:55:52.724Z,0.60
2018-01-30T05:58:25.159Z,0.60
2018-01-30T06:00:58.443Z,0.60
2018-01-30T06:03:30.845Z,0.67
2018-01-30T06:06:03.339Z,0.70
2018-01-30T06:08:36.711Z,0.50
2018-01-30T06:11:09.992Z,0.60
2018-01-30T06:13:42.559Z,0.70
2018-01-30T06:16:15.848Z,0.50
2018-01-30T06:18:48.267Z,0.50
2018-01-30T06:21:20.820Z,0.60
2018-01-30T06:23:53.372Z,0.50
2018-01-30T06:26:26.671Z,0.57
2018-01-30T06:28:59.979Z,0.60
2018-01-30T06:31:33.243Z,0.50
2018-01-30T06:34:05.624Z,0.60
2018-01-30T06:36:38.105Z,0.70
2018-01-30T06:39:11.519Z,0.63
2018-01-30T06:41:43.988Z,0.63
2018-01-30T06:44:16.559Z,0.70
2018-01-30T06:46:49.052Z,0.60
2018-01-30T06:49:21.628Z,0.50
2018-01-30T06:51:54.165Z,0.50
2018-01-30T06:54:26.712Z,0.50
2018-01-30T06:57:00.052Z,0.60
2018-01-30T06:59:32.536Z,0.60
2018-01-30T07:02:05.005Z,0.80
2018-01-30T07:04:37.567Z,0.60
2018-01-30T07:07:10.069Z,0.50
2018-01-30T07:09:43.439Z,0.70
2018-01-30T07:12:16.712Z,0.50
2018-01-30T07:14:50.022Z,0.50
2018-01-30T07:17:23.296Z,0.50
2018-01-30T07:19:55.832Z,0.60
2018-01-30T07:22:28.384Z,0.50
2018-01-30T07:25:00.923Z,0.50
2018-01-30T07:27:34.209Z,0.50
2018-01-30T07:30:06.738Z,0.60
2018-01-30T07:32:39.300Z,0.70
2018-01-30T07:35:12.580Z,0.57
2018-01-30T07:37:45.066Z,0.60
2018-01-30T07:40:17.653Z,0.50
2018-01-30T07:42:50.216Z,0.67
2018-01-30T07:45:22.661Z,0.63
2018-01-30T07:47:55.940Z,0.70
2018-01-30T07:50:29.060Z,0.60
2018-01-30T07:53:01.618Z,0.63
2018-01-30T07:55:34.143Z,0.70
2018-01-30T07:58:06.688Z,0.70
2018-01-30T08:00:40.072Z,0.60
2018-01-30T08:03:12.580Z,0.70
2018-01-30T08:05:45.143Z,0.63
2018-01-30T08:08:17.660Z,0.60
2018-01-30T08:10:50.983Z,0.73
2018-01-30T08:13:24.262Z,0.60
2018-01-30T08:15:57.466Z,0.70
2018-01-30T08:18:30.856Z,0.70
2018-01-30T08:21:03.408Z,0.60
2018-01-30T08:23:35.883Z,0.50
2018-01-30T08:26:09.110Z,0.73
2018-01-30T08:28:41.592Z,0.70
2018-01-30T08:31:14.984Z,0.60
2018-01-30T08:33:48.249Z,0.67
2018-01-30T08:36:20.808Z,0.60
2018-01-30T08:38:53.323Z,0.63
2018-01-30T08:41:25.690Z,0.73
2018-01-30T08:43:58.952Z,0.50
2018-01-30T08:46:31.252Z,0.83
2018-01-30T08:49:03.845Z,0.70
2018-01-30T08:51:36.328Z,0.80
2018-01-30T08:54:08.840Z,0.70
2018-01-30T08:56:42.940Z,0.80
2018-01-30T08:59:15.440Z,0.80
2018-01-30T09:01:47.972Z,0.60
2018-01-30T09:04:20.478Z,0.80
2018-01-30T09:06:53.795Z,0.70
2018-01-30T09:09:27.007Z,0.70
2018-01-30T09:11:59.536Z,0.80
2018-01-30T09:14:32.836Z,0.80
2018-01-30T09:17:05.512Z,0.90
2018-01-30T09:19:38.274Z,0.60
2018-01-30T09:22:11.608Z,0.67
2018-01-30T09:24:44.119Z,0.53
2018-01-30T09:27:16.560Z,0.90
2018-01-30T09:29:49.264Z,0.67
2018-01-30T09:32:21.848Z,0.70
2018-01-30T09:34:54.605Z,0.60
2018-01-30T09:37:27.392Z,0.80
2018-01-30T09:39:59.969Z,0.60
2018-01-30T09:42:32.842Z,0.73
2018-01-30T09:45:05.544Z,0.50
2018-01-30T09:47:38.939Z,0.70
2018-01-30T09:50:11.711Z,0.70
2018-01-30T09:52:44.293Z,0.60
2018-01-30T09:55:17.073Z,0.80
2018-01-30T09:57:49.435Z,0.60
2018-01-30T10:00:21.941Z,0.70
2018-01-30T10:02:54.495Z,0.60
2018-01-30T10:05:27.195Z,0.70
2018-01-30T10:08:00.684Z,0.80
2018-01-30T10:10:33.437Z,0.80
2018-01-30T10:13:06.220Z,0.80
2018-01-30T10:15:38.942Z,0.70
2018-01-30T10:18:11.836Z,0.80
2018-01-30T10:20:44.597Z,0.70
2018-01-30T10:23:17.335Z,0.60
2018-01-30T10:25:50.116Z,0.80
2018-01-30T10:28:22.942Z,0.70
2018-01-30T10:30:55.573Z,0.80
2018-01-30T10:33:28.601Z,0.70
2018-01-30T10:36:01.106Z,1.17
2018-01-30T10:38:34.529Z,0.80
2018-01-30T10:41:07.306Z,0.80
2018-01-30T10:43:39.892Z,0.60
2018-01-30T10:46:12.790Z,0.77
2018-01-30T10:48:45.663Z,0.87
2018-01-30T10:51:18.541Z,0.83
2018-01-30T10:53:51.459Z,0.77
2018-01-30T10:56:24.117Z,0.90
2018-01-30T10:58:56.777Z,0.80
2018-01-30T11:01:29.313Z,0.90
2018-01-30T11:04:02.135Z,0.70
2018-01-30T11:06:34.819Z,0.80
2018-01-30T11:09:08.301Z,0.70
2018-01-30T11:11:40.984Z,0.73
2018-01-30T11:14:13.412Z,0.90
2018-01-30T11:16:46.283Z,0.90
2018-01-30T11:19:18.860Z,0.70
2018-01-30T11:21:51.503Z,0.87
2018-01-30T11:24:24.979Z,0.90
2018-01-30T11:26:57.402Z,1.00
2018-01-30T11:29:30.732Z,0.83
2018-01-30T11:32:04.163Z,0.83
2018-01-30T11:34:36.740Z,0.93
2018-01-30T11:37:09.519Z,0.90
2018-01-30T11:39:41.868Z,1.00
2018-01-30T11:42:14.476Z,1.10
2018-01-30T11:44:47.246Z,0.90
2018-01-30T11:47:19.684Z,0.90
2018-01-30T11:49:52.209Z,0.90
2018-01-30T11:52:24.687Z,1.10
2018-01-30T11:54:58.028Z,0.90
2018-01-30T11:57:30.534Z,0.87
2018-01-30T12:00:03.248Z,1.50
2018-01-30T12:02:35.924Z,1.03
2018-01-30T12:05:09.267Z,1.00
2018-01-30T12:07:41.716Z,1.10
2018-01-30T12:10:14.275Z,1.07
2018-01-30T12:12:47.571Z,1.53
2018-01-30T12:15:20.179Z,0.87
2018-01-30T12:17:52.703Z,1.00
2018-01-30T12:20:26.263Z,1.10
2018-01-30T12:22:58.794Z,0.83
2018-01-30T12:25:32.115Z,1.23
2018-01-30T12:28:04.584Z,1.10
2018-01-30T12:30:38.026Z,0.93
2018-01-30T12:33:10.455Z,0.90
2018-01-30T12:35:43.798Z,1.13
2018-01-30T12:38:17.250Z,0.80
2018-01-30T12:40:49.820Z,1.10
2018-01-30T12:43:22.734Z,0.93
2018-01-30T12:45:55.360Z,1.30
2018-01-30T12:48:27.829Z,1.13
2018-01-30T12:51:01.141Z,1.30
2018-01-30T12:53:34.569Z,1.20
2018-01-30T12:56:07.069Z,1.23
2018-01-30T12:58:39.665Z,1.00
2018-01-30T13:01:12.401Z,1.10
2018-01-30T13:03:44.903Z,1.07
2018-01-30T13:06:18.237Z,1.10
2018-01-30T13:08:51.500Z,1.07
2018-01-30T13:11:23.937Z,1.13
2018-01-30T13:13:56.575Z,1.00
2018-01-30T13:16:29.028Z,0.90
2018-01-30T13:19:02.574Z,1.20
2018-01-30T13:21:35.060Z,1.00
2018-01-30T13:24:07.492Z,1.00
2018-01-30T13:26:40.000Z,1.30
2018-01-30T13:29:12.599Z,1.00
2018-01-30T13:31:45.152Z,0.93
2018-01-30T13:34:17.703Z,1.20
2018-01-30T13:36:50.264Z,1.40
2018-01-30T13:39:22.740Z,1.10
2018-01-30T13:41:55.292Z,1.20
2018-01-30T13:44:27.749Z,1.20
2018-01-30T13:47:01.075Z,0.90
2018-01-30T13:49:34.355Z,1.20
2018-01-30T13:52:06.904Z,1.10
2018-01-30T13:54:39.436Z,1.30
2018-01-30T13:57:12.023Z,1.00
2018-01-30T13:59:44.492Z,1.30
2018-01-30T14:02:17.076Z,1.07
2018-01-30T14:04:49.603Z,1.30
2018-01-30T14:07:22.240Z,1.07
2018-01-30T14:09:54.688Z,1.00
2018-01-30T14:12:27.142Z,1.00
2018-01-30T14:15:00.416Z,1.20
2018-01-30T14:17:33.084Z,1.27
2018-01-30T14:20:05.596Z,1.20
2018-01-30T14:22:38.880Z,1.20
2018-01-30T14:25:11.415Z,1.00
2018-01-30T14:27:43.949Z,1.20
2018-01-30T14:30:16.491Z,1.20
2018-01-30T14:32:49.302Z,1.10
2018-01-30T14:35:21.853Z,1.40
2018-01-30T14:37:55.047Z,1.10
2018-01-30T14:40:28.656Z,1.40
2018-01-30T14:43:01.229Z,1.00
2018-01-30T14:45:33.796Z,1.20
2018-01-30T14:48:06.303Z,1.20
2018-01-30T14:50:38.851Z,1.30
2018-01-30T14:53:12.199Z,1.17
2018-01-30T14:55:44.861Z,1.27
2018-01-30T14:58:18.331Z,0.90
2018-01-30T15:00:50.966Z,1.30
2018-01-30T15:03:23.452Z,1.00
2018-01-30T15:05:56.014Z,1.10
2018-01-30T15:08:28.751Z,1.30
2018-01-30T15:11:01.541Z,1.33
2018-01-30T15:13:34.305Z,1.00
2018-01-30T15:16:07.459Z,1.00
2018-01-30T15:18:40.764Z,0.83
2018-01-30T15:21:13.151Z,1.20
2018-01-30T15:23:46.548Z,1.20
2018-01-30T15:26:19.122Z,1.20
2018-01-30T15:28:51.598Z,1.10
2018-01-30T15:31:24.078Z,1.20
2018-01-30T15:33:56.794Z,1.10
2018-01-30T15:36:29.394Z,1.30
2018-01-30T15:39:02.113Z,1.20
2018-01-30T15:41:34.476Z,1.30
2018-01-30T15:44:07.012Z,1.10
2018-01-30T15:46:39.738Z,1.63
2018-01-30T15:49:12.195Z,1.10
2018-01-30T15:51:45.168Z,1.33
2018-01-30T15:54:17.617Z,0.80
2018-01-30T15:56:50.250Z,1.13
2018-01-30T15:59:22.929Z,1.30
2018-01-30T16:01:55.626Z,1.10
2018-01-30T16:04:28.489Z,1.30
2018-01-30T16:07:02.807Z,1.07
2018-01-30T16:09:35.544Z,1.00
2018-01-30T16:12:08.071Z,1.10
2018-01-30T16:14:40.725Z,1.20
2018-01-30T16:17:13.394Z,1.00
2018-01-30T16:19:46.946Z,1.17
2018-01-30T16:22:20.549Z,1.40
2018-01-30T16:24:53.793Z,1.10
2018-01-30T16:27:26.492Z,1.40
2018-01-30T16:30:00.202Z,1.13
2018-01-30T16:32:33.819Z,1.30
2018-01-30T16:35:07.279Z,1.20
2018-01-30T16:37:40.935Z,1.20
2018-01-30T16:40:13.771Z,1.33
2018-01-30T16:42:46.644Z,1.30
2018-01-30T16:45:19.296Z,1.03
2018-01-30T16:47:51.844Z,1.10
2018-01-30T16:50:24.424Z,1.07
2018-01-30T16:52:57.027Z,1.30
2018-01-30T16:55:29.633Z,1.27
2018-01-30T16:58:02.874Z,1.40
2018-01-30T17:00:35.440Z,1.30
2018-01-30T17:03:07.960Z,1.30
2018-01-30T17:05:40.543Z,1.13
2018-01-30T17:08:13.099Z,1.30
2018-01-30T17:10:45.695Z,1.10
2018-01-30T17:13:18.153Z,1.20
2018-01-30T17:15:50.583Z,1.33
2018-01-30T17:18:23.882Z,1.30
2018-01-30T17:20:56.453Z,1.40
2018-01-30T17:23:29.143Z,1.43
2018-01-30T17:26:01.515Z,1.13
2018-01-30T17:28:34.108Z,1.20
2018-01-30T17:31:06.711Z,1.70
2018-01-30T17:33:39.263Z,1.30
2018-01-30T17:36:11.800Z,1.37
2018-01-30T17:38:44.333Z,1.30
2018-01-30T17:41:16.856Z,1.23
2018-01-30T17:43:49.364Z,1.23
2018-01-30T17:46:21.964Z,1.10
2018-01-30T17:48:54.458Z,1.20
2018-01-30T17:51:27.050Z,1.50
2018-01-30T17:53:59.569Z,1.33
2018-01-30T17:56:32.847Z,1.47
2018-01-30T17:59:05.284Z,1.30
2018-01-30T18:01:38.599Z,1.63
2018-01-30T18:04:11.223Z,1.40
2018-01-30T18:06:43.791Z,1.70
2018-01-30T18:09:16.300Z,1.63
2018-01-30T18:11:48.823Z,1.73
2018-01-30T18:14:21.284Z,1.63
2018-01-30T18:16:53.792Z,1.83
2018-01-30T18:19:26.333Z,2.10
2018-01-30T18:21:59.035Z,2.10
2018-01-30T18:24:31.443Z,2.87
2018-01-30T18:27:03.873Z,2.57
2018-01-30T18:29:36.499Z,2.90
2018-01-30T18:32:08.992Z,2.47
2018-01-30T18:34:41.555Z,2.90
2018-01-30T18:37:14.187Z,2.80
2018-01-30T18:39:46.701Z,2.73
2018-01-30T18:42:19.208Z,2.67
2018-01-30T18:44:51.796Z,3.73
2018-01-30T18:47:24.361Z,2.70
2018-01-30T18:49:57.624Z,3.00
2018-01-30T18:52:30.936Z,3.03
2018-01-30T18:55:04.485Z,3.27
2018-01-30T18:57:37.079Z,2.50
2018-01-30T19:00:10.319Z,2.30
2018-01-30T19:02:42.827Z,3.23
2018-01-30T19:05:15.256Z,2.90
2018-01-30T19:07:47.892Z,3.00
2018-01-30T19:10:20.368Z,2.57
2018-01-30T19:12:52.912Z,2.53
2018-01-30T19:15:25.472Z,2.80
2018-01-30T19:17:59.196Z,2.97
2018-01-30T19:20:31.618Z,3.07
2018-01-30T19:23:04.167Z,2.47
2018-01-30T19:25:36.644Z,2.77
2018-01-30T19:28:09.257Z,2.53
2018-01-30T19:30:41.795Z,2.60
2018-01-30T19:33:14.369Z,2.93
2018-01-30T19:35:46.952Z,2.43
2018-01-30T19:38:19.435Z,3.00
2018-01-30T19:40:51.911Z,2.50
2018-01-30T19:43:24.422Z,2.73
2018-01-30T19:45:56.995Z,3.00
2018-01-30T19:48:29.627Z,2.70
2018-01-30T19:51:02.000Z,2.63
2018-01-30T19:53:34.583Z,2.77
2018-01-30T19:56:08.647Z,2.50
2018-01-30T19:58:42.067Z,2.70
2018-01-30T20:01:14.547Z,2.60
2018-01-30T20:03:47.159Z,2.30
2018-01-30T20:06:19.675Z,2.67
2018-01-30T20:08:52.264Z,2.80
2018-01-30T20:11:24.759Z,2.73
2018-01-30T20:13:58.184Z,2.63
2018-01-30T20:16:30.806Z,2.60
2018-01-30T20:19:04.195Z,2.47
2018-01-30T20:21:36.675Z,2.17
2018-01-30T20:24:09.111Z,2.30
2018-01-30T20:26:42.522Z,2.60
2018-01-30T20:29:15.151Z,2.70
2018-01-30T20:31:47.667Z,2.60
2018-01-30T20:34:20.973Z,3.10
2018-01-30T20:36:53.484Z,2.30
2018-01-30T20:39:26.869Z,2.20
2018-01-30T20:42:00.177Z,2.80
2018-01-30T20:44:32.731Z,2.70
2018-01-30T20:47:05.225Z,3.27
2018-01-30T20:49:37.757Z,2.70
2018-01-30T20:52:11.136Z,2.73
2018-01-30T20:54:44.306Z,3.03
2018-01-30T20:57:17.614Z,2.83
2018-01-30T20:59:50.202Z,2.43
2018-01-30T21:02:22.813Z,2.30
2018-01-30T21:04:55.348Z,3.03
2018-01-30T21:07:27.939Z,2.63
2018-01-30T21:10:00.520Z,2.00
2018-01-30T21:12:33.652Z,2.63
2018-01-30T21:15:06.301Z,2.67
2018-01-30T21:17:38.864Z,2.73
2018-01-30T21:20:11.289Z,2.60
2018-01-30T21:22:43.875Z,2.90
2018-01-30T21:25:17.160Z,2.47
2018-01-30T21:27:49.688Z,2.50
2018-01-30T21:30:22.243Z,2.40
2018-01-30T21:32:54.787Z,2.60
2018-01-30T21:35:27.435Z,2.20
2018-01-30T21:37:59.931Z,2.50
2018-01-30T21:40:32.485Z,2.87
2018-01-30T21:43:04.955Z,2.40
2018-01-30T21:45:38.359Z,2.40
2018-01-30T21:48:10.892Z,2.10
2018-01-30T21:50:44.243Z,2.47
2018-01-30T21:53:16.831Z,2.77
2018-01-30T21:55:49.352Z,2.67
2018-01-30T21:58:21.935Z,2.57
2018-01-30T22:00:54.368Z,3.00
2018-01-30T22:03:27.750Z,2.40
2018-01-30T22:06:00.246Z,2.47
2018-01-30T22:08:32.777Z,2.73
2018-01-30T22:11:05.281Z,2.57
2018-01-30T22:13:38.679Z,2.40
2018-01-30T22:16:11.874Z,2.67
2018-01-30T22:18:45.209Z,3.00
2018-01-30T22:21:17.699Z,2.63
2018-01-30T22:23:50.191Z,2.77
2018-01-30T22:26:23.593Z,2.70
2018-01-30T22:28:56.007Z,2.37
2018-01-30T22:31:30.038Z,2.47
2018-01-30T22:34:03.368Z,2.60
2018-01-30T22:36:37.100Z,2.50
2018-01-30T22:39:09.477Z,2.20
2018-01-30T22:41:41.935Z,2.53
2018-01-30T22:44:15.344Z,3.00
2018-01-30T22:46:47.707Z,3.10
